createdAt,value
2023-03-25T00:01:18.563Z,20.00
2023-03-25T00:04:20.252Z,20.70
2023-03-25T00:07:22.206Z,20.30
2023-03-25T00:10:23.859Z,22.10
2023-03-25T00:13:25.705Z,20.50
2023-03-25T00:16:27.494Z,20.50
2023-03-25T00:19:29.045Z,23.10
2023-03-25T00:22:30.671Z,21.80
2023-03-25T00:25:32.268Z,21.80
2023-03-25T00:28:35.759Z,21.50
2023-03-25T00:31:37.304Z,22.70
2023-03-25T00:34:39.130Z,23.30
2023-03-25T00:37:43.691Z,23.30
2023-03-25T00:40:45.498Z,24.10
2023-03-25T00:43:47.056Z,25.80
2023-03-25T00:46:48.898Z,23.10
2023-03-25T00:49:50.662Z,22.90
2023-03-25T00:52:52.609Z,22.60
2023-03-25T00:55:57.910Z,22.40
2023-03-25T00:58:59.657Z,23.20
2023-03-25T01:02:01.220Z,21.30
2023-03-25T01:05:03.244Z,22.40
2023-03-25T01:08:04.818Z,21.30
2023-03-25T01:11:07.371Z,23.80
2023-03-25T01:14:13.712Z,22.40
2023-03-25T01:17:15.212Z,22.80
2023-03-25T01:20:16.913Z,23.00
2023-03-25T01:23:18.511Z,23.20
2023-03-25T01:26:20.377Z,24.40
2023-03-25T01:29:22.573Z,21.20
2023-03-25T01:32:25.377Z,21.80
2023-03-25T01:35:27.105Z,21.60
2023-03-25T01:38:29.953Z,25.70
2023-03-25T01:41:46.841Z,23.50
2023-03-25T01:44:51.939Z,22.80
2023-03-25T01:48:02.790Z,23.40
2023-03-25T01:51:13.526Z,22.60
2023-03-25T01:54:15.140Z,24.00
2023-03-25T01:57:19.238Z,21.90
2023-03-25T02:00:21.047Z,22.80
2023-03-25T02:03:23.249Z,23.40
2023-03-25T02:06:31.174Z,25.20
2023-03-25T02:09:32.875Z,26.30
2023-03-25T02:12:34.400Z,23.40
2023-03-25T02:16:02.284Z,23.70
2023-03-25T02:19:27.154Z,22.70
2023-03-25T02:22:54.987Z,23.80
2023-03-25T02:26:21.158Z,27.50
2023-03-25T02:29:35.148Z,27.00
2023-03-25T02:32:54.866Z,25.10
2023-03-25T02:36:31.116Z,28.00
2023-03-25T02:39:46.657Z,28.50
2023-03-25T02:42:54.291Z,25.40
2023-03-25T02:45:58.763Z,27.90
2023-03-25T02:49:10.819Z,27.30
2023-03-25T02:52:25.655Z,29.40
2023-03-25T02:55:29.028Z,33.00
2023-03-25T02:58:30.828Z,32.70
2023-03-25T03:01:36.232Z,34.70
2023-03-25T03:04:49.908Z,33.10
2023-03-25T03:08:06.481Z,32.10
2023-03-25T03:11:42.050Z,30.60
2023-03-25T03:14:56.774Z,31.80
2023-03-25T03:18:21.564Z,28.70
2023-03-25T03:21:32.444Z,32.20
2023-03-25T03:24:37.828Z,27.40
2023-03-25T03:27:46.641Z,31.10
2023-03-25T03:31:11.038Z,32.90
2023-03-25T03:34:34.232Z,31.00
2023-03-25T03:37:48.720Z,33.50
2023-03-25T03:40:53.624Z,30.00
2023-03-25T03:44:00.632Z,32.30
2023-03-25T03:47:05.951Z,28.30
2023-03-25T03:50:28.163Z,29.00
2023-03-25T03:53:33.248Z,29.90
2023-03-25T03:56:55.789Z,29.10
2023-03-25T04:00:10.876Z,27.20
2023-03-25T04:03:16.044Z,27.70
2023-03-25T04:06:22.136Z,27.50
2023-03-25T04:09:51.463Z,26.00
2023-03-25T04:12:54.241Z,24.20
2023-03-25T04:15:58.210Z,24.60
2023-03-25T04:19:00.075Z,22.80
2023-03-25T04:22:05.566Z,22.40
2023-03-25T04:25:07.538Z,23.70
2023-03-25T04:28:10.926Z,22.90
2023-03-25T04:31:16.923Z,23.10
2023-03-25T04:34:18.580Z,23.00
2023-03-25T04:37:20.093Z,21.40
2023-03-25T04:40:21.659Z,21.00
2023-03-25T04:43:23.170Z,22.20
2023-03-25T04:46:25.088Z,19.00
2023-03-25T04:49:26.725Z,19.40
2023-03-25T04:52:28.272Z,17.60
2023-03-25T04:55:29.838Z,15.50
2023-03-25T04:58:31.881Z,14.40
2023-03-25T05:01:35.538Z,12.40
2023-03-25T05:04:37.242Z,16.00
2023-03-25T05:07:38.839Z,15.30
2023-03-25T05:10:40.494Z,11.70
2023-03-25T05:13:42.204Z,12.50
2023-03-25T05:16:44.472Z,11.50
2023-03-25T05:19:46.050Z,12.80
2023-03-25T05:22:47.657Z,13.40
2023-03-25T05:25:51.226Z,10.40
2023-03-25T05:28:52.967Z,14.20
2023-03-25T05:31:54.558Z,12.20
2023-03-25T05:34:56.886Z,13.90
2023-03-25T05:37:58.464Z,14.90
2023-03-25T05:41:00.054Z,16.70
2023-03-25T05:44:01.659Z,12.80
2023-03-25T05:47:03.253Z,15.10
2023-03-25T05:50:05.298Z,11.80
2023-03-25T05:53:06.797Z,15.70
2023-03-25T05:56:08.661Z,16.00
2023-03-25T05:59:10.350Z,14.00
2023-03-25T06:02:14.652Z,12.80
2023-03-25T06:05:16.905Z,12.00
2023-03-25T06:08:19.064Z,13.10
2023-03-25T06:11:20.630Z,13.10
2023-03-25T06:14:22.260Z,14.40
2023-03-25T06:17:24.081Z,16.80
2023-03-25T06:20:25.914Z,16.70
2023-03-25T06:23:27.500Z,16.50
2023-03-25T06:26:29.307Z,15.30
2023-03-25T06:29:30.791Z,18.60
2023-03-25T06:32:32.560Z,19.90
2023-03-25T06:35:34.220Z,21.70
2023-03-25T06:38:35.789Z,20.90
2023-03-25T06:41:37.345Z,23.10
2023-03-25T06:44:39.012Z,28.40
2023-03-25T06:47:40.791Z,24.50
2023-03-25T06:50:43.759Z,23.90
2023-03-25T06:53:45.444Z,30.00
2023-03-25T06:56:47.443Z,23.70
2023-03-25T06:59:49.365Z,26.00
2023-03-25T07:02:51.080Z,25.20
2023-03-25T07:05:53.102Z,27.50
2023-03-25T07:08:55.018Z,23.40
2023-03-25T07:11:56.680Z,24.70
2023-03-25T07:14:58.251Z,27.70
2023-03-25T07:17:59.911Z,24.90
2023-03-25T07:21:01.569Z,26.30
2023-03-25T07:24:03.224Z,24.70
2023-03-25T07:27:04.962Z,26.10
2023-03-25T07:30:08.835Z,24.30
2023-03-25T07:33:10.556Z,24.70
2023-03-25T07:36:13.266Z,28.30
2023-03-25T07:39:15.137Z,27.50
2023-03-25T07:42:16.758Z,27.10
2023-03-25T07:45:18.499Z,23.20
2023-03-25T07:48:20.051Z,26.20
2023-03-25T07:51:21.612Z,25.40
2023-03-25T07:54:23.248Z,25.40
2023-03-25T07:57:24.802Z,21.80
2023-03-25T08:00:26.934Z,21.20
2023-03-25T08:03:28.907Z,25.10
2023-03-25T08:06:30.538Z,23.30
2023-03-25T08:09:32.532Z,24.00
2023-03-25T08:12:34.411Z,23.60
2023-03-25T08:15:36.100Z,26.10
2023-03-25T08:18:37.615Z,25.50
2023-03-25T08:21:39.275Z,24.10
2023-03-25T08:24:40.812Z,26.10
2023-03-25T08:27:42.824Z,23.80
2023-03-25T08:30:44.596Z,25.40
2023-03-25T08:33:46.131Z,24.70
2023-03-25T08:36:48.488Z,27.10
2023-03-25T08:39:50.025Z,23.20
2023-03-25T08:42:51.638Z,23.30
2023-03-25T08:45:53.823Z,26.10
2023-03-25T08:48:55.568Z,25.20
2023-03-25T08:51:58.078Z,22.70
2023-03-25T08:54:59.888Z,23.30
2023-03-25T08:58:03.346Z,27.00
2023-03-25T09:01:05.370Z,23.50
2023-03-25T09:04:06.966Z,22.50
2023-03-25T09:07:10.283Z,21.80
2023-03-25T09:10:13.222Z,22.40
2023-03-25T09:13:14.777Z,23.50
2023-03-25T09:16:16.398Z,23.00
2023-03-25T09:19:18.024Z,23.30
2023-03-25T09:22:19.673Z,25.50
2023-03-25T09:25:21.417Z,21.20
2023-03-25T09:28:23.123Z,22.10
2023-03-25T09:31:25.140Z,27.10
2023-03-25T09:34:29.642Z,20.30
2023-03-25T09:37:31.156Z,20.70
2023-03-25T09:40:34.194Z,20.80
2023-03-25T09:43:47.711Z,19.80
2023-03-25T09:46:49.644Z,19.30
2023-03-25T09:49:56.388Z,17.20
2023-03-25T09:53:05.226Z,18.40
2023-03-25T09:56:11.888Z,18.70
2023-03-25T09:59:25.682Z,16.80
2023-03-25T10:03:14.786Z,17.40
2023-03-25T10:06:23.047Z,20.00
2023-03-25T10:09:42.558Z,14.60
2023-03-25T10:13:05.470Z,15.30
2023-03-25T10:16:28.272Z,15.30
2023-03-25T10:20:06.803Z,15.20
2023-03-25T10:23:22.639Z,15.70
2023-03-25T10:26:44.384Z,11.00
2023-03-25T10:29:52.140Z,13.20
2023-03-25T10:32:58.725Z,15.10
2023-03-25T10:36:01.720Z,18.20
2023-03-25T10:39:06.786Z,15.00
2023-03-25T10:42:29.977Z,15.60
2023-03-25T10:45:32.585Z,12.80
2023-03-25T10:48:34.367Z,12.40
2023-03-25T10:51:36.935Z,15.00
2023-03-25T10:54:42.114Z,13.20
2023-03-25T10:57:44.049Z,13.40
2023-03-25T11:00:45.631Z,11.40
2023-03-25T11:03:50.448Z,13.00
2023-03-25T11:06:55.021Z,13.20
2023-03-25T11:10:11.157Z,14.60
2023-03-25T11:13:12.831Z,15.60
2023-03-25T11:16:14.581Z,15.40
2023-03-25T11:19:21.206Z,10.40
2023-03-25T11:22:26.852Z,12.20
2023-03-25T11:25:36.911Z,11.40
2023-03-25T11:28:44.681Z,11.80
2023-03-25T11:31:57.052Z,14.10
2023-03-25T11:35:01.775Z,12.90
2023-03-25T11:38:15.464Z,10.50
2023-03-25T11:41:17.125Z,12.60
2023-03-25T11:44:26.086Z,11.30
2023-03-25T11:47:35.782Z,11.50
2023-03-25T11:50:37.659Z,8.90
2023-03-25T11:53:44.841Z,13.30
2023-03-25T11:56:48.999Z,13.70
2023-03-25T12:00:00.881Z,11.60
2023-03-25T12:03:23.612Z,9.80
2023-03-25T12:06:25.378Z,10.80
2023-03-25T12:09:30.744Z,14.60
2023-03-25T12:12:48.175Z,11.20
2023-03-25T12:16:13.341Z,14.90
2023-03-25T12:19:42.992Z,14.60
2023-03-25T12:22:55.284Z,8.80
2023-03-25T12:26:02.325Z,12.50
2023-03-25T12:29:42.316Z,16.70
2023-03-25T12:33:15.252Z,18.70
2023-03-25T12:36:25.878Z,12.50
2023-03-25T12:39:47.623Z,14.00
2023-03-25T12:42:49.109Z,11.10
2023-03-25T12:45:59.252Z,10.50
2023-03-25T12:49:23.906Z,11.10
2023-03-25T12:52:48.974Z,10.80
2023-03-25T12:56:00.219Z,11.80
2023-03-25T12:59:22.696Z,9.80
2023-03-25T13:02:39.204Z,11.20
2023-03-25T13:05:48.090Z,10.60
2023-03-25T13:09:03.537Z,9.20
2023-03-25T13:12:26.489Z,9.30
2023-03-25T13:15:36.580Z,9.60
2023-03-25T13:19:03.923Z,7.30
2023-03-25T13:22:11.341Z,7.50
2023-03-25T13:25:42.926Z,9.50
2023-03-25T13:28:54.076Z,11.10
2023-03-25T13:31:58.478Z,14.80
2023-03-25T13:35:16.095Z,13.30
2023-03-25T13:38:21.870Z,17.30
2023-03-25T13:41:28.465Z,11.40
2023-03-25T13:44:40.894Z,13.00
2023-03-25T13:47:46.070Z,13.30
2023-03-25T13:50:47.881Z,11.20
2023-03-25T13:53:54.311Z,7.50
2023-03-25T13:57:35.973Z,7.90
2023-03-25T14:01:04.013Z,6.50
2023-03-25T14:04:21.869Z,8.10
2023-03-25T14:07:48.898Z,9.30
2023-03-25T14:10:54.536Z,8.40
2023-03-25T14:14:01.303Z,9.70
2023-03-25T14:17:04.649Z,5.30
2023-03-25T14:20:07.615Z,6.40
2023-03-25T14:23:15.747Z,12.90
2023-03-25T14:26:18.037Z,8.20
2023-03-25T14:29:46.578Z,14.60
2023-03-25T14:32:48.687Z,11.00
2023-03-25T14:35:50.715Z,6.60
2023-03-25T14:38:56.148Z,9.00
2023-03-25T14:42:02.351Z,10.30
2023-03-25T14:45:32.540Z,12.10
2023-03-25T14:48:36.829Z,14.80
2023-03-25T14:51:38.705Z,12.10
2023-03-25T14:54:40.476Z,9.10
2023-03-25T14:57:43.055Z,11.20
2023-03-25T15:01:00.180Z,15.90
2023-03-25T15:04:15.270Z,19.90
2023-03-25T15:07:19.114Z,14.30
2023-03-25T15:10:24.646Z,13.70
2023-03-25T15:13:29.643Z,13.60
2023-03-25T15:16:36.039Z,14.10
2023-03-25T15:20:02.464Z,16.70
2023-03-25T15:23:19.177Z,14.00
2023-03-25T15:26:23.819Z,12.30
2023-03-25T15:29:37.533Z,15.20
2023-03-25T15:33:09.066Z,19.80
2023-03-25T15:36:20.160Z,19.10
2023-03-25T15:39:38.004Z,17.40
2023-03-25T15:42:50.163Z,18.80
2023-03-25T15:46:00.989Z,19.30
2023-03-25T15:49:24.276Z,18.70
2023-03-25T15:52:25.920Z,35.90
2023-03-25T15:55:29.507Z,33.90
2023-03-25T15:58:37.348Z,20.60
2023-03-25T16:01:44.257Z,24.80
2023-03-25T16:04:47.999Z,53.10
2023-03-25T16:07:49.855Z,24.30
2023-03-25T16:10:51.739Z,16.00
2023-03-25T16:14:14.216Z,20.80
2023-03-25T16:17:17.549Z,19.70
2023-03-25T16:20:22.612Z,10.30
2023-03-25T16:23:25.121Z,14.60
2023-03-25T16:26:41.782Z,13.20
2023-03-25T16:29:48.280Z,16.00
2023-03-25T16:32:50.303Z,11.90
2023-03-25T16:36:01.433Z,14.20
2023-03-25T16:39:03.494Z,12.20
2023-03-25T16:42:30.471Z,13.40
2023-03-25T16:45:33.291Z,12.00
2023-03-25T16:48:40.524Z,12.50
2023-03-25T16:51:44.579Z,15.10
2023-03-25T16:54:52.488Z,14.20
2023-03-25T16:57:54.738Z,15.10
2023-03-25T17:00:56.983Z,16.10
2023-03-25T17:04:10.318Z,12.30
2023-03-25T17:07:15.600Z,9.40
2023-03-25T17:10:29.147Z,9.50
2023-03-25T17:13:37.753Z,12.30
2023-03-25T17:16:39.530Z,10.30
2023-03-25T17:19:45.883Z,15.00
2023-03-25T17:23:16.780Z,9.50
2023-03-25T17:26:19.809Z,11.20
2023-03-25T17:29:21.670Z,12.00
2023-03-25T17:32:23.518Z,12.90
2023-03-25T17:35:30.855Z,15.30
2023-03-25T17:38:36.236Z,11.80
2023-03-25T17:41:38.922Z,17.50
2023-03-25T17:44:43.908Z,15.70
2023-03-25T17:47:46.000Z,16.30
2023-03-25T17:50:55.641Z,17.20
2023-03-25T17:53:57.532Z,17.70
2023-03-25T17:56:59.420Z,19.80
2023-03-25T18:00:01.304Z,22.40
2023-03-25T18:03:10.153Z,16.70
2023-03-25T18:06:12.361Z,16.90
2023-03-25T18:09:21.403Z,23.00
2023-03-25T18:12:23.178Z,23.80
2023-03-25T18:15:24.992Z,21.90
2023-03-25T18:18:27.033Z,23.50
2023-03-25T18:21:28.661Z,22.80
2023-03-25T18:24:30.478Z,20.40
2023-03-25T18:27:42.694Z,19.90
2023-03-25T18:30:55.345Z,20.50
2023-03-25T18:33:57.156Z,19.30
2023-03-25T18:36:58.964Z,21.40
2023-03-25T18:40:00.932Z,19.80
2023-03-25T18:43:03.398Z,25.50
2023-03-25T18:46:05.314Z,20.80
2023-03-25T18:49:18.394Z,18.70
2023-03-25T18:52:20.168Z,18.90
2023-03-25T18:55:22.045Z,22.00
2023-03-25T18:58:26.309Z,26.20
2023-03-25T19:01:28.378Z,17.70
2023-03-25T19:04:30.062Z,18.10
2023-03-25T19:07:31.681Z,17.10
2023-03-25T19:10:34.439Z,20.10
2023-03-25T19:13:36.111Z,20.50
2023-03-25T19:16:38.086Z,22.40
2023-03-25T19:19:40.076Z,21.30
2023-03-25T19:22:41.914Z,21.00
2023-03-25T19:25:48.624Z,24.50
2023-03-25T19:28:50.320Z,22.50
2023-03-25T19:34:54.572Z,31.20
2023-03-25T19:37:57.345Z,27.10
2023-03-25T19:41:07.946Z,29.00
2023-03-25T19:44:09.565Z,30.10
2023-03-25T19:47:11.100Z,28.30
2023-03-25T19:50:18.266Z,31.10
2023-03-25T19:53:19.927Z,28.70
2023-03-25T19:56:21.538Z,26.90
2023-03-25T19:59:23.164Z,27.20
2023-03-25T20:05:28.378Z,27.70
2023-03-25T20:08:30.353Z,28.40
2023-03-25T20:11:32.804Z,27.20
2023-03-25T20:14:34.570Z,26.00
2023-03-25T20:17:37.259Z,28.10
2023-03-25T20:20:40.065Z,27.60
2023-03-25T20:23:41.726Z,29.60
2023-03-25T20:26:43.516Z,30.80
2023-03-25T20:29:45.268Z,30.90
2023-03-25T20:32:48.755Z,29.80
2023-03-25T20:35:50.931Z,30.10
2023-03-25T20:38:57.794Z,27.80
2023-03-25T20:41:59.918Z,29.90
2023-03-25T20:45:01.616Z,29.60
2023-03-25T20:48:03.539Z,27.70
2023-03-25T20:51:07.498Z,31.50
2023-03-25T20:54:10.274Z,34.60
2023-03-25T20:57:12.263Z,33.80
2023-03-25T21:00:14.335Z,31.40
2023-03-25T21:03:16.237Z,39.70
2023-03-25T21:06:23.744Z,38.90
2023-03-25T21:09:27.562Z,40.00
2023-03-25T21:12:40.577Z,37.40
2023-03-25T21:15:45.313Z,39.70
2023-03-25T21:18:47.193Z,41.20
2023-03-25T21:21:49.140Z,39.70
2023-03-25T21:24:50.809Z,35.70
2023-03-25T21:27:52.795Z,35.70
2023-03-25T21:31:00.700Z,36.30
2023-03-25T21:34:02.622Z,37.40
2023-03-25T21:37:04.228Z,34.50
2023-03-25T21:40:08.603Z,35.70
2023-03-25T21:43:10.579Z,37.20
2023-03-25T21:46:12.784Z,36.10
2023-03-25T21:49:14.981Z,37.90
2023-03-25T21:52:16.751Z,40.80
2023-03-25T21:55:18.541Z,34.50
2023-03-25T21:58:27.721Z,32.90
2023-03-25T22:01:29.929Z,30.50
2023-03-25T22:04:31.923Z,32.40
2023-03-25T22:07:33.719Z,31.60
2023-03-25T22:10:35.511Z,30.60
2023-03-25T22:13:37.204Z,29.70
2023-03-25T22:16:39.001Z,28.90
2023-03-25T22:19:40.625Z,29.40
2023-03-25T22:25:44.933Z,31.40
2023-03-25T22:28:46.914Z,29.30
2023-03-25T22:31:48.516Z,28.80
2023-03-25T22:34:50.236Z,29.00
2023-03-25T22:37:51.873Z,30.90
2023-03-25T22:40:53.687Z,27.60
2023-03-25T22:43:55.316Z,31.10
2023-03-25T22:46:57.612Z,25.00
2023-03-25T22:49:59.362Z,23.10
2023-03-25T22:53:01.084Z,21.60
2023-03-25T22:56:03.315Z,23.90
2023-03-25T22:59:07.193Z,23.10
2023-03-25T23:02:10.596Z,21.50
2023-03-25T23:05:12.337Z,21.90
2023-03-25T23:08:14.187Z,21.10
2023-03-25T23:11:18.643Z,22.40
2023-03-25T23:14:20.455Z,21.50
2023-03-25T23:17:23.119Z,20.30
2023-03-25T23:20:24.938Z,16.50
2023-03-25T23:23:26.850Z,18.60
2023-03-25T23:26:32.367Z,12.80
2023-03-25T23:29:35.209Z,13.10
2023-03-25T23:32:36.885Z,17.00
2023-03-25T23:35:38.593Z,15.80
2023-03-25T23:38:40.606Z,10.10
2023-03-25T23:41:42.675Z,13.10
2023-03-25T23:44:44.390Z,12.80
2023-03-25T23:47:46.013Z,14.30
2023-03-25T23:50:47.914Z,13.50
2023-03-25T23:53:51.000Z,14.50
2023-03-25T23:56:53.105Z,12.40
2023-03-25T23:59:54.802Z,9.20
